Terminal Aerodrome Forecast
Issued by NWS Charleston, WV

Current Version | Previous Version | Graphics & Text | Print | Product List | Glossary On
Versions: 1 2 3 4 5 6 7 8 9 10 11 12 13 14 15 16 17 18 19 20 21 22 23
179
FTUS41 KRLX 210249 AAA
TAFEKN
TAF AMD
KEKN 210249Z 2103/2124 00000KT P6SM FEW250
     FM210800 00000KT 5SM BR SCT250
     FM211300 14006KT P6SM SCT200
     FM211900 16008KT P6SM BKN150
     FM212100 18007KT P6SM BKN100=

USA.gov is the U.S. government's official web portal to all federal, state and local government web resources and services.